createdAt,value
2018-12-13T00:00:07.853Z,1.08
2018-12-13T00:01:07.846Z,1.06
2018-12-13T00:02:07.821Z,1.08
2018-12-13T00:03:07.842Z,1.12
2018-12-13T00:04:07.796Z,1.24
2018-12-13T00:05:07.804Z,1.20
2018-12-13T00:06:07.795Z,1.26
2018-12-13T00:07:07.812Z,1.16
2018-12-13T00:08:07.784Z,1.22
2018-12-13T00:09:07.769Z,1.22
2018-12-13T00:10:07.737Z,1.28
2018-12-13T00:11:07.732Z,1.32
2018-12-13T00:12:07.752Z,1.40
2018-12-13T00:13:07.729Z,1.30
2018-12-13T00:14:07.695Z,1.30
2018-12-13T00:15:07.680Z,1.26
2018-12-13T00:16:07.669Z,1.31
2018-12-13T00:17:07.714Z,1.26
2018-12-13T00:18:07.669Z,1.30
2018-12-13T00:19:07.637Z,1.28
2018-12-13T00:20:07.678Z,1.35
2018-12-13T00:21:07.619Z,1.30
2018-12-13T00:22:07.637Z,1.41
2018-12-13T00:23:07.621Z,1.42
2018-12-13T00:24:07.585Z,1.38
2018-12-13T00:25:07.578Z,1.38
2018-12-13T00:26:07.571Z,1.24
2018-12-13T00:27:07.574Z,1.34
2018-12-13T00:28:07.563Z,1.32
2018-12-13T00:29:07.539Z,1.24
2018-12-13T00:30:07.542Z,1.20
2018-12-13T00:31:07.509Z,1.28
2018-12-13T00:32:07.555Z,1.32
2018-12-13T00:33:07.507Z,1.41
2018-12-13T00:34:07.490Z,1.41
2018-12-13T00:35:07.470Z,1.30
2018-12-13T00:36:07.471Z,1.31
2018-12-13T00:37:07.477Z,1.38
2018-12-13T00:38:07.471Z,1.35
2018-12-13T00:39:07.428Z,1.44
2018-12-13T00:40:07.418Z,1.49
2018-12-13T00:41:07.436Z,1.50
2018-12-13T00:42:07.411Z,1.48
2018-12-13T00:43:07.415Z,1.52
2018-12-13T00:44:07.402Z,1.60
2018-12-13T00:45:07.375Z,1.59
2018-12-13T00:46:07.356Z,1.59
2018-12-13T00:47:07.346Z,1.56
2018-12-13T00:48:07.346Z,1.50
2018-12-13T00:49:07.324Z,1.45
2018-12-13T00:50:07.316Z,1.52
2018-12-13T00:51:07.307Z,1.31
2018-12-13T00:52:07.297Z,1.34
2018-12-13T00:53:07.322Z,1.52
2018-12-13T00:54:07.284Z,1.48
2018-12-13T00:55:07.254Z,1.53
2018-12-13T00:56:07.273Z,1.52
2018-12-13T00:57:07.237Z,1.50
2018-12-13T00:58:07.270Z,1.53
2018-12-13T00:59:07.213Z,1.53
2018-12-13T01:00:07.200Z,1.56
2018-12-13T01:01:07.204Z,1.60
2018-12-13T01:02:07.219Z,1.58
2018-12-13T01:03:07.174Z,1.58
2018-12-13T01:04:07.221Z,1.59
2018-12-13T01:05:07.173Z,1.62
2018-12-13T01:06:07.139Z,1.59
2018-12-13T01:07:07.196Z,1.59
2018-12-13T01:08:07.154Z,1.62
2018-12-13T01:09:07.130Z,1.56
2018-12-13T01:10:07.121Z,1.56
2018-12-13T01:11:07.086Z,1.49
2018-12-13T01:12:07.175Z,1.45
2018-12-13T01:13:07.062Z,1.48
2018-12-13T01:14:07.065Z,1.50
2018-12-13T01:15:07.091Z,1.55
2018-12-13T01:16:07.056Z,1.31
2018-12-13T01:17:07.047Z,1.42
2018-12-13T01:18:07.027Z,1.34
2018-12-13T01:19:07.006Z,1.26
2018-12-13T01:20:06.995Z,1.30
2018-12-13T01:21:06.989Z,1.34
2018-12-13T01:22:07.009Z,1.26
2018-12-13T01:23:06.985Z,1.17
2018-12-13T01:24:06.954Z,1.10
2018-12-13T01:25:06.936Z,1.14
2018-12-13T01:26:06.927Z,1.14
2018-12-13T01:27:06.944Z,1.08
2018-12-13T01:28:06.943Z,1.08
2018-12-13T01:29:06.919Z,1.08
2018-12-13T01:30:06.883Z,1.16
2018-12-13T01:31:06.902Z,1.24
2018-12-13T01:32:06.862Z,1.13
2018-12-13T01:33:06.878Z,0.99
2018-12-13T01:34:06.881Z,1.05
2018-12-13T01:35:06.832Z,1.05
2018-12-13T01:36:06.818Z,1.14
2018-12-13T01:37:06.812Z,1.12
2018-12-13T01:38:06.815Z,1.20
2018-12-13T01:39:06.832Z,1.24
2018-12-13T01:40:06.787Z,1.30
2018-12-13T01:41:06.763Z,1.32
2018-12-13T01:42:06.765Z,1.41
2018-12-13T01:43:06.751Z,1.38
2018-12-13T01:44:06.772Z,1.45
2018-12-13T01:45:06.742Z,1.56
2018-12-13T01:46:06.740Z,1.55
2018-12-13T01:47:06.724Z,1.55
2018-12-13T01:48:06.744Z,1.62
2018-12-13T01:49:06.712Z,1.66
2018-12-13T01:50:06.675Z,1.63
2018-12-13T01:51:06.693Z,1.66
2018-12-13T01:52:06.668Z,1.68
2018-12-13T01:53:06.680Z,1.59
2018-12-13T01:54:06.672Z,1.56
2018-12-13T01:55:06.628Z,1.50
2018-12-13T01:56:06.681Z,1.53
2018-12-13T01:57:06.618Z,1.52
2018-12-13T01:58:06.603Z,1.53
2018-12-13T01:59:06.617Z,1.52
2018-12-13T02:00:06.593Z,1.52
2018-12-13T02:01:06.551Z,1.55
2018-12-13T02:02:06.543Z,1.50
2018-12-13T02:03:06.540Z,1.52
2018-12-13T02:04:06.519Z,1.45
2018-12-13T02:05:06.540Z,1.45
2018-12-13T02:06:06.516Z,1.49
2018-12-13T02:07:06.490Z,1.40
2018-12-13T02:08:06.477Z,1.32
2018-12-13T02:09:06.472Z,1.26
2018-12-13T02:10:06.488Z,1.23
2018-12-13T02:11:06.442Z,1.24
2018-12-13T02:12:06.437Z,1.24
2018-12-13T02:13:06.428Z,1.24
2018-12-13T02:14:06.435Z,1.28
2018-12-13T02:15:06.436Z,1.34
2018-12-13T02:16:06.394Z,1.17
2018-12-13T02:17:06.454Z,1.24
2018-12-13T02:18:06.452Z,1.28
2018-12-13T02:19:06.358Z,1.38
2018-12-13T02:20:06.396Z,1.44
2018-12-13T02:21:06.358Z,1.44
2018-12-13T02:22:06.325Z,1.59
2018-12-13T02:23:06.350Z,1.58
2018-12-13T02:24:06.304Z,1.59
2018-12-13T02:25:06.347Z,1.60
2018-12-13T02:26:06.283Z,1.58
2018-12-13T02:27:06.293Z,1.66
2018-12-13T02:28:06.266Z,1.59
2018-12-13T02:29:06.256Z,1.60
2018-12-13T02:30:06.286Z,1.74
2018-12-13T02:31:06.239Z,1.62
2018-12-13T02:32:06.247Z,1.58
2018-12-13T02:33:06.234Z,1.53
2018-12-13T02:34:06.200Z,1.55
2018-12-13T02:35:06.243Z,1.50
2018-12-13T02:36:06.189Z,1.60
2018-12-13T02:37:06.572Z,1.48
2018-12-13T02:38:06.160Z,1.50
2018-12-13T02:39:06.146Z,1.48
2018-12-13T02:40:06.173Z,1.45
2018-12-13T02:41:06.133Z,1.35
2018-12-13T02:42:06.113Z,1.31
2018-12-13T02:43:06.182Z,1.37
2018-12-13T02:44:06.116Z,1.26
2018-12-13T02:45:06.084Z,1.23
2018-12-13T02:46:06.113Z,1.17
2018-12-13T02:47:06.076Z,1.26
2018-12-13T02:48:06.050Z,1.24
2018-12-13T02:49:06.045Z,1.12
2018-12-13T02:50:06.055Z,1.17
2018-12-13T02:51:06.050Z,1.22
2018-12-13T02:52:06.006Z,1.32
2018-12-13T02:53:06.030Z,1.31
2018-12-13T02:54:05.986Z,1.34
2018-12-13T02:55:05.979Z,1.37
2018-12-13T02:56:05.995Z,1.48
2018-12-13T02:57:05.965Z,1.52
2018-12-13T02:58:05.952Z,1.56
2018-12-13T02:59:05.930Z,1.66
2018-12-13T03:00:05.921Z,1.60
2018-12-13T03:01:05.957Z,1.63
2018-12-13T03:02:05.897Z,1.67
2018-12-13T03:03:05.923Z,1.71
2018-12-13T03:04:05.882Z,1.73
2018-12-13T03:05:05.865Z,1.73
2018-12-13T03:06:05.857Z,1.77
2018-12-13T03:07:13.242Z,1.60
2018-12-13T03:08:06.859Z,1.52
2018-12-13T03:09:05.837Z,1.37
2018-12-13T03:10:05.886Z,1.31
2018-12-13T03:11:05.838Z,1.26
2018-12-13T03:12:05.795Z,1.32
2018-12-13T03:13:05.778Z,1.26
2018-12-13T03:14:05.812Z,1.32
2018-12-13T03:15:05.784Z,1.38
2018-12-13T03:16:05.745Z,1.30
2018-12-13T03:17:05.743Z,1.38
2018-12-13T03:18:05.732Z,1.38
2018-12-13T03:19:05.759Z,1.34
2018-12-13T03:20:05.710Z,1.38
2018-12-13T03:21:05.708Z,1.40
2018-12-13T03:22:05.683Z,1.35
2018-12-13T03:23:05.670Z,1.22
2018-12-13T03:24:05.679Z,1.19
2018-12-13T03:25:05.678Z,1.02
2018-12-13T03:26:05.666Z,1.10
2018-12-13T03:27:05.686Z,1.16
2018-12-13T03:28:05.651Z,1.22
2018-12-13T03:29:05.613Z,1.28
2018-12-13T03:30:05.599Z,1.22
2018-12-13T03:31:05.620Z,1.06
2018-12-13T03:32:05.600Z,1.01
2018-12-13T03:33:05.574Z,0.95
2018-12-13T03:34:05.562Z,0.84
2018-12-13T03:35:05.582Z,0.91
2018-12-13T03:36:05.562Z,0.95
2018-12-13T03:37:05.538Z,0.91
2018-12-13T03:38:05.512Z,1.02
2018-12-13T03:39:05.515Z,0.91
2018-12-13T03:40:05.491Z,0.91
2018-12-13T03:41:05.514Z,1.01
2018-12-13T03:42:05.468Z,1.12
2018-12-13T03:43:05.468Z,1.22
2018-12-13T03:44:05.470Z,1.24
2018-12-13T03:45:05.432Z,1.24
2018-12-13T03:46:05.469Z,1.37
2018-12-13T03:47:05.423Z,1.35
2018-12-13T03:48:05.412Z,1.26
2018-12-13T03:49:05.412Z,1.19
2018-12-13T03:50:05.391Z,1.10
2018-12-13T03:51:05.374Z,1.05
2018-12-13T03:52:05.411Z,0.94
2018-12-13T03:53:05.350Z,0.99
2018-12-13T03:54:05.351Z,0.99
2018-12-13T03:55:05.429Z,1.02
2018-12-13T03:56:05.317Z,1.12
2018-12-13T03:57:05.338Z,1.10
2018-12-13T03:58:05.330Z,1.16
2018-12-13T03:59:05.289Z,1.22
2018-12-13T04:00:05.278Z,1.24
2018-12-13T04:01:05.354Z,1.24
2018-12-13T04:02:05.257Z,1.31
2018-12-13T04:03:05.273Z,1.34
2018-12-13T04:04:05.235Z,1.30
2018-12-13T04:05:05.224Z,1.31
2018-12-13T04:06:05.219Z,1.34
2018-12-13T04:07:05.224Z,1.32
2018-12-13T04:08:05.224Z,1.28
2018-12-13T04:09:05.221Z,1.42
2018-12-13T04:10:05.166Z,1.38
2018-12-13T04:11:05.166Z,1.22
2018-12-13T04:12:05.170Z,1.12
2018-12-13T04:13:05.167Z,0.98
2018-12-13T04:14:05.121Z,0.88
2018-12-13T04:15:05.127Z,0.83
2018-12-13T04:16:05.097Z,0.78
2018-12-13T04:17:05.106Z,0.84
2018-12-13T04:18:05.110Z,0.92
2018-12-13T04:19:05.071Z,0.80
2018-12-13T04:20:05.110Z,0.83
2018-12-13T04:21:05.052Z,0.87
2018-12-13T04:22:05.051Z,0.98
2018-12-13T04:23:05.057Z,0.95
2018-12-13T04:24:05.012Z,0.95
2018-12-13T04:25:05.010Z,0.99
2018-12-13T04:26:05.006Z,0.99
2018-12-13T04:27:04.985Z,1.01
2018-12-13T04:28:04.999Z,1.12
2018-12-13T04:29:04.968Z,1.12
2018-12-13T04:30:04.969Z,1.10
2018-12-13T04:31:04.944Z,1.06
2018-12-13T04:32:04.930Z,1.01
2018-12-13T04:33:04.976Z,0.96
2018-12-13T04:34:04.908Z,0.91
2018-12-13T04:35:04.913Z,0.83
2018-12-13T04:36:04.909Z,0.86
2018-12-13T04:37:04.898Z,0.69
2018-12-13T04:38:04.866Z,0.77
2018-12-13T04:39:04.876Z,0.77
2018-12-13T04:40:04.889Z,0.68
2018-12-13T04:41:04.840Z,0.74
2018-12-13T04:42:04.840Z,0.76
2018-12-13T04:43:04.864Z,0.88
2018-12-13T04:44:04.795Z,0.74
2018-12-13T04:45:04.784Z,0.70
2018-12-13T04:46:04.793Z,0.81
2018-12-13T04:47:04.849Z,0.65
2018-12-13T04:48:04.751Z,0.65
2018-12-13T04:49:04.748Z,0.65
2018-12-13T04:50:04.760Z,0.69
2018-12-13T04:51:04.760Z,0.78
2018-12-13T04:52:04.710Z,0.87
2018-12-13T04:53:04.736Z,0.88
2018-12-13T04:54:04.733Z,0.83
2018-12-13T04:55:04.684Z,0.83
2018-12-13T04:56:04.676Z,0.77
2018-12-13T04:57:04.666Z,0.83
2018-12-13T04:58:04.701Z,0.84
2018-12-13T04:59:04.667Z,0.95
2018-12-13T05:00:04.620Z,0.84
2018-12-13T05:01:04.616Z,0.96
2018-12-13T05:02:04.621Z,1.02
2018-12-13T05:03:04.782Z,0.98
2018-12-13T05:04:04.593Z,1.02
2018-12-13T05:05:04.584Z,0.91
2018-12-13T05:06:04.569Z,0.87
2018-12-13T05:07:04.548Z,0.88
2018-12-13T05:08:04.582Z,0.84
2018-12-13T05:09:04.536Z,0.88
2018-12-13T05:10:04.525Z,1.01
2018-12-13T05:11:04.506Z,0.99
2018-12-13T05:12:04.539Z,1.13
2018-12-13T05:13:04.528Z,1.10
2018-12-13T05:14:04.484Z,1.05
2018-12-13T05:15:04.476Z,0.98
2018-12-13T05:16:04.472Z,0.99
2018-12-13T05:17:04.435Z,1.04
2018-12-13T05:18:04.469Z,0.91
2018-12-13T05:19:04.434Z,0.88
2018-12-13T05:20:04.414Z,0.94
2018-12-13T05:21:04.397Z,1.04
2018-12-13T05:22:04.402Z,0.99
2018-12-13T05:23:04.383Z,1.05
2018-12-13T05:24:04.380Z,1.16
2018-12-13T05:25:04.359Z,1.20
2018-12-13T05:26:04.343Z,1.12
2018-12-13T05:27:04.359Z,1.12
2018-12-13T05:28:04.366Z,0.96
2018-12-13T05:29:04.306Z,0.91
2018-12-13T05:30:04.307Z,0.87
2018-12-13T05:31:04.305Z,0.83
2018-12-13T05:32:04.275Z,0.86
2018-12-13T05:33:04.268Z,0.81
2018-12-13T05:34:04.277Z,0.91
2018-12-13T05:35:04.281Z,0.94
2018-12-13T05:36:04.301Z,1.02
2018-12-13T05:37:04.226Z,1.08
2018-12-13T05:38:04.228Z,1.13
2018-12-13T05:39:04.210Z,1.12
2018-12-13T05:40:04.217Z,1.16
2018-12-13T05:41:04.182Z,1.26
2018-12-13T05:42:04.213Z,1.22
2018-12-13T05:43:04.167Z,1.08
2018-12-13T05:44:04.174Z,1.01
2018-12-13T05:45:04.153Z,0.99
2018-12-13T05:46:04.143Z,0.86
2018-12-13T05:47:04.117Z,0.92
2018-12-13T05:48:04.121Z,0.91
2018-12-13T05:49:04.124Z,0.98
2018-12-13T05:50:04.180Z,0.96
2018-12-13T05:51:04.075Z,0.98
2018-12-13T05:52:04.087Z,1.13
2018-12-13T05:53:04.085Z,1.19
2018-12-13T05:54:04.061Z,1.28
2018-12-13T05:55:04.060Z,1.31
2018-12-13T05:56:04.031Z,1.24
2018-12-13T05:57:04.016Z,1.22
2018-12-13T05:58:04.021Z,1.26
2018-12-13T05:59:04.040Z,1.34
2018-12-13T06:00:03.977Z,1.30
2018-12-13T06:01:03.977Z,1.37
2018-12-13T06:02:03.952Z,1.41
2018-12-13T06:03:03.986Z,1.55
2018-12-13T06:04:03.955Z,1.48
2018-12-13T06:05:03.918Z,1.48
2018-12-13T06:06:03.910Z,1.37
2018-12-13T06:07:03.900Z,1.45
2018-12-13T06:08:03.897Z,1.41
2018-12-13T06:09:03.901Z,1.41
2018-12-13T06:10:03.876Z,1.55
2018-12-13T06:11:03.874Z,1.52
2018-12-13T06:12:03.850Z,1.56
2018-12-13T06:13:03.844Z,1.58
2018-12-13T06:14:03.862Z,1.55
2018-12-13T06:15:03.854Z,1.59
2018-12-13T06:16:03.808Z,1.56
2018-12-13T06:17:03.790Z,1.59
2018-12-13T06:18:06.851Z,1.62
2018-12-13T06:19:03.777Z,1.59
2018-12-13T06:20:03.796Z,1.53
2018-12-13T06:21:03.781Z,1.53
2018-12-13T06:22:03.741Z,1.48
2018-12-13T06:23:03.728Z,1.45
2018-12-13T06:24:03.724Z,1.49
2018-12-13T06:25:03.714Z,1.45
2018-12-13T06:26:03.737Z,1.38
2018-12-13T06:27:03.707Z,1.32
2018-12-13T06:28:03.693Z,1.19
2018-12-13T06:29:03.702Z,1.14
2018-12-13T06:30:07.415Z,1.17
2018-12-13T06:31:03.666Z,1.22
2018-12-13T06:32:03.631Z,1.34
2018-12-13T06:33:03.623Z,1.35
2018-12-13T06:34:03.640Z,1.30
2018-12-13T06:35:03.622Z,1.34
2018-12-13T06:36:03.588Z,1.34
2018-12-13T06:37:03.656Z,1.30
2018-12-13T06:38:03.608Z,1.17
2018-12-13T06:39:03.584Z,1.06
2018-12-13T06:40:03.598Z,1.05
2018-12-13T06:41:03.551Z,0.96
2018-12-13T06:42:03.535Z,1.02
2018-12-13T06:43:03.515Z,1.06
2018-12-13T06:44:03.508Z,1.08
2018-12-13T06:45:03.507Z,1.04
2018-12-13T06:46:03.796Z,1.10
2018-12-13T06:47:03.471Z,1.19
2018-12-13T06:48:03.474Z,1.16
2018-12-13T06:49:03.464Z,1.14
2018-12-13T06:50:03.484Z,1.28
2018-12-13T06:51:03.443Z,1.20
2018-12-13T06:52:03.431Z,1.06
2018-12-13T06:53:03.446Z,1.19
2018-12-13T06:54:03.392Z,1.24
2018-12-13T06:55:03.384Z,1.17
2018-12-13T06:56:03.408Z,1.16
2018-12-13T06:57:03.370Z,1.32
2018-12-13T06:58:03.353Z,1.28
2018-12-13T06:59:03.374Z,1.30
2018-12-13T07:00:03.338Z,1.30
2018-12-13T07:01:03.375Z,1.40
2018-12-13T07:02:03.350Z,1.37
2018-12-13T07:03:03.298Z,1.37
2018-12-13T07:04:03.285Z,1.37
2018-12-13T07:05:03.314Z,1.45
2018-12-13T07:06:03.296Z,1.44
2018-12-13T07:07:03.297Z,1.45
2018-12-13T07:08:07.819Z,1.48
2018-12-13T07:09:03.232Z,1.52
2018-12-13T07:10:03.220Z,1.48
2018-12-13T07:11:03.232Z,1.45
2018-12-13T07:12:03.219Z,1.49
2018-12-13T07:13:03.191Z,1.63
2018-12-13T07:14:03.195Z,1.68
2018-12-13T07:15:03.171Z,1.59
2018-12-13T07:16:03.173Z,1.62
2018-12-13T07:17:03.179Z,1.71
2018-12-13T07:18:03.153Z,1.76
2018-12-13T07:19:03.121Z,1.62
2018-12-13T07:20:03.121Z,1.67
2018-12-13T07:21:03.117Z,1.68
2018-12-13T07:22:03.165Z,1.70
2018-12-13T07:23:03.088Z,1.67
2018-12-13T07:24:03.667Z,1.58
2018-12-13T07:25:03.067Z,1.56
2018-12-13T07:26:03.069Z,1.48
2018-12-13T07:27:03.035Z,1.48
2018-12-13T07:28:03.063Z,1.49
2018-12-13T07:29:03.018Z,1.56
2018-12-13T07:30:03.025Z,1.41
2018-12-13T07:31:03.019Z,1.35
2018-12-13T07:32:02.986Z,1.45
2018-12-13T07:33:02.988Z,1.38
2018-12-13T07:34:02.961Z,1.37
2018-12-13T07:35:02.967Z,1.40
2018-12-13T07:36:02.947Z,1.41
2018-12-13T07:37:02.949Z,1.34
2018-12-13T07:39:19.165Z,1.50
2018-12-13T07:40:19.132Z,1.38
2018-12-13T07:41:19.148Z,1.42
2018-12-13T07:42:19.115Z,1.48
2018-12-13T07:43:19.130Z,1.52
2018-12-13T07:44:19.088Z,1.52
2018-12-13T07:45:19.097Z,1.59
2018-12-13T07:46:19.074Z,1.45
2018-12-13T07:47:19.057Z,1.37
2018-12-13T07:48:19.073Z,1.34
2018-12-13T07:49:19.039Z,1.34
2018-12-13T07:50:19.026Z,1.28
2018-12-13T07:51:19.024Z,1.30
2018-12-13T07:52:19.027Z,1.38
2018-12-13T07:53:19.051Z,1.42
2018-12-13T07:54:18.992Z,1.28
2018-12-13T07:55:18.990Z,1.22
2018-12-13T07:56:18.961Z,1.08
2018-12-13T07:57:18.964Z,1.01
2018-12-13T07:58:18.954Z,0.99
2018-12-13T07:59:18.952Z,1.02
2018-12-13T08:00:18.923Z,1.05
2018-12-13T08:01:18.924Z,1.12
2018-12-13T08:02:18.898Z,1.10
2018-12-13T08:03:18.887Z,1.14
2018-12-13T08:04:18.891Z,1.14
2018-12-13T08:05:18.910Z,1.28
2018-12-13T08:06:18.852Z,1.22
2018-12-13T08:07:18.842Z,1.22
2018-12-13T08:08:20.939Z,1.31
2018-12-13T08:09:18.862Z,1.26
2018-12-13T08:10:18.810Z,1.22
2018-12-13T08:11:18.807Z,1.20
2018-12-13T08:12:18.797Z,1.34
2018-12-13T08:13:18.831Z,1.34
2018-12-13T08:14:18.771Z,1.28
2018-12-13T08:15:18.788Z,1.30
2018-12-13T08:16:18.747Z,1.34
2018-12-13T08:17:18.737Z,1.50
2018-12-13T08:18:18.725Z,1.49
2018-12-13T08:19:18.718Z,1.49
2018-12-13T08:20:18.727Z,1.56
2018-12-13T08:21:18.689Z,1.63
2018-12-13T08:22:18.679Z,1.62
2018-12-13T08:23:18.719Z,1.77
2018-12-13T08:24:18.668Z,1.74
2018-12-13T08:25:18.684Z,1.74
2018-12-13T08:26:18.657Z,1.76
2018-12-13T08:27:18.624Z,1.84
2018-12-13T08:28:18.617Z,1.78
2018-12-13T08:29:18.614Z,1.70
2018-12-13T08:30:18.597Z,1.70
2018-12-13T08:31:18.603Z,1.68
2018-12-13T08:32:18.582Z,1.70
2018-12-13T08:33:18.571Z,1.71
2018-12-13T08:34:18.554Z,1.68
2018-12-13T08:35:18.562Z,1.70
2018-12-13T08:36:18.551Z,1.85
2018-12-13T08:37:18.521Z,1.81
2018-12-13T08:38:18.528Z,1.84
2018-12-13T08:39:18.507Z,1.71
2018-12-13T08:40:18.486Z,1.77
2018-12-13T08:41:18.495Z,1.78
2018-12-13T08:42:18.481Z,1.78
2018-12-13T08:43:18.467Z,1.76
2018-12-13T08:44:18.454Z,1.71
2018-12-13T08:45:18.447Z,1.74
2018-12-13T08:46:18.457Z,1.85
2018-12-13T08:47:18.419Z,1.92
2018-12-13T08:48:18.403Z,1.89
2018-12-13T08:49:18.397Z,1.95
2018-12-13T08:50:18.402Z,1.87
2018-12-13T08:51:18.425Z,1.95
2018-12-13T08:52:18.367Z,1.89
2018-12-13T08:53:18.397Z,1.78
2018-12-13T08:54:18.351Z,1.62
2018-12-13T08:55:18.327Z,1.60
2018-12-13T08:56:18.331Z,1.66
2018-12-13T08:57:18.333Z,1.63
2018-12-13T08:58:18.299Z,1.76
2018-12-13T08:59:18.311Z,1.73
2018-12-13T09:00:18.313Z,1.84
2018-12-13T09:01:18.261Z,1.81
2018-12-13T09:02:18.264Z,1.94
2018-12-13T09:03:18.262Z,1.91
2018-12-13T09:04:18.231Z,2.00
2018-12-13T09:05:18.356Z,1.92
2018-12-13T09:06:18.216Z,1.97
2018-12-13T09:07:18.205Z,1.92
2018-12-13T09:08:18.202Z,1.94
2018-12-13T09:09:18.221Z,1.87
2018-12-13T09:10:18.192Z,1.67
2018-12-13T09:11:18.191Z,1.74
2018-12-13T09:12:18.154Z,1.74
2018-12-13T09:13:18.143Z,1.73
2018-12-13T09:14:18.149Z,1.71
2018-12-13T09:15:18.167Z,1.73
2018-12-13T09:16:18.109Z,1.74
2018-12-13T09:17:18.104Z,1.81
2018-12-13T09:18:18.102Z,1.80
2018-12-13T09:19:18.084Z,1.87
2018-12-13T09:20:18.072Z,1.77
2018-12-13T09:21:18.076Z,1.84
2018-12-13T09:22:18.045Z,1.94
2018-12-13T09:23:18.043Z,1.91
2018-12-13T09:24:18.191Z,1.81
2018-12-13T09:25:18.031Z,1.74
2018-12-13T09:26:18.030Z,1.63
2018-12-13T09:27:17.994Z,1.66
2018-12-13T09:28:17.975Z,1.76
2018-12-13T09:29:17.972Z,1.73
2018-12-13T09:30:17.957Z,1.67
2018-12-13T09:31:17.988Z,1.63
2018-12-13T09:32:17.939Z,1.62
2018-12-13T09:33:17.935Z,1.63
2018-12-13T09:34:17.952Z,1.68
2018-12-13T09:35:17.905Z,1.66
2018-12-13T09:36:17.889Z,1.70
2018-12-13T09:37:17.900Z,1.66
2018-12-13T09:38:17.871Z,1.71
2018-12-13T09:39:17.865Z,1.85
2018-12-13T09:40:17.887Z,1.84
2018-12-13T09:41:17.877Z,1.87
2018-12-13T09:42:17.847Z,1.81
2018-12-13T09:43:17.833Z,1.85
2018-12-13T09:44:17.809Z,1.80
2018-12-13T09:45:17.804Z,1.77
2018-12-13T09:46:17.811Z,1.89
2018-12-13T09:47:17.784Z,1.87
2018-12-13T09:48:17.764Z,1.87
2018-12-13T09:49:17.766Z,1.95
2018-12-13T09:50:17.766Z,1.91
2018-12-13T09:51:17.762Z,1.77
2018-12-13T09:52:17.725Z,1.87
2018-12-13T09:53:17.716Z,1.77
2018-12-13T09:54:17.698Z,1.71
2018-12-13T09:55:17.711Z,1.60
2018-12-13T09:56:17.750Z,1.71
2018-12-13T09:57:17.669Z,1.77
2018-12-13T09:58:17.718Z,1.74
2018-12-13T09:59:17.652Z,1.74
2018-12-13T10:00:17.638Z,1.80
2018-12-13T10:01:17.637Z,1.88
2018-12-13T10:02:17.622Z,1.94
2018-12-13T10:03:17.600Z,1.85
2018-12-13T10:04:17.593Z,1.78
2018-12-13T10:05:17.588Z,1.77
2018-12-13T10:06:17.599Z,1.81
2018-12-13T10:07:17.559Z,1.71
2018-12-13T10:08:17.577Z,1.88
2018-12-13T10:09:17.538Z,1.89
2018-12-13T10:10:17.547Z,1.88
2018-12-13T10:11:17.538Z,1.99
2018-12-13T10:12:17.525Z,1.87
2018-12-13T10:13:17.516Z,1.95
2018-12-13T10:14:17.513Z,2.04
2018-12-13T10:15:17.482Z,1.87
2018-12-13T10:16:17.460Z,1.87
2018-12-13T10:17:17.450Z,1.92
2018-12-13T10:18:17.477Z,2.04
2018-12-13T10:19:17.433Z,2.00
2018-12-13T10:20:17.428Z,2.04
2018-12-13T10:21:17.414Z,1.97
2018-12-13T10:22:17.406Z,1.87
2018-12-13T10:23:17.407Z,1.84
2018-12-13T10:24:17.404Z,1.87
2018-12-13T10:25:17.391Z,1.73
2018-12-13T10:26:17.357Z,1.76
2018-12-13T10:27:17.354Z,1.81
2018-12-13T10:28:17.334Z,1.84
2018-12-13T10:29:17.358Z,1.78
2018-12-13T10:30:17.320Z,1.74
2018-12-13T10:31:17.305Z,1.71
2018-12-13T10:32:17.309Z,1.78
2018-12-13T10:33:17.324Z,1.81
2018-12-13T10:34:17.312Z,1.76
2018-12-13T10:35:17.263Z,1.94
2018-12-13T10:36:17.256Z,1.89
2018-12-13T10:37:17.256Z,1.94
2018-12-13T10:38:17.229Z,1.99
2018-12-13T10:39:17.261Z,2.11
2018-12-13T10:40:17.717Z,2.17
2018-12-13T10:41:17.198Z,2.25
2018-12-13T10:42:17.200Z,2.20
2018-12-13T10:43:17.211Z,2.26
2018-12-13T10:44:17.162Z,2.26
2018-12-13T10:45:17.158Z,2.20
2018-12-13T10:46:17.146Z,2.22
2018-12-13T10:47:17.126Z,2.24
2018-12-13T10:48:17.146Z,2.17
2018-12-13T10:49:17.112Z,2.18
2018-12-13T10:50:17.103Z,2.28
2018-12-13T10:51:17.087Z,2.14
2018-12-13T10:52:17.076Z,2.08
2018-12-13T10:53:17.112Z,1.95
2018-12-13T10:54:17.059Z,1.84
2018-12-13T10:55:17.123Z,1.88
2018-12-13T10:56:17.042Z,1.99
2018-12-13T10:57:17.044Z,2.11
2018-12-13T10:58:17.038Z,2.11
2018-12-13T10:59:17.044Z,2.11
2018-12-13T11:00:16.995Z,2.13
2018-12-13T11:01:17.007Z,2.14
2018-12-13T11:02:16.969Z,2.14
2018-12-13T11:03:16.999Z,2.22
2018-12-13T11:04:16.972Z,2.22
2018-12-13T11:05:16.946Z,2.31
2018-12-13T11:06:16.926Z,2.33
2018-12-13T11:07:16.929Z,2.38
2018-12-13T11:08:16.926Z,2.24
2018-12-13T11:09:16.946Z,2.22
2018-12-13T11:10:16.888Z,2.26
2018-12-13T11:11:16.913Z,2.26
2018-12-13T11:12:16.909Z,2.26
2018-12-13T11:13:16.866Z,2.22
2018-12-13T11:14:16.909Z,2.18
2018-12-13T11:15:16.842Z,2.28
2018-12-13T11:16:16.863Z,2.31
2018-12-13T11:17:16.809Z,2.29
2018-12-13T11:18:16.800Z,2.33
2018-12-13T11:19:16.798Z,2.33
2018-12-13T11:20:16.807Z,2.36
2018-12-13T11:21:17.538Z,2.35
2018-12-13T11:22:16.780Z,2.38
2018-12-13T11:23:16.745Z,2.47
2018-12-13T11:24:16.751Z,2.53
2018-12-13T11:25:16.757Z,2.54
2018-12-13T11:26:16.715Z,2.56
2018-12-13T11:27:16.719Z,2.57
2018-12-13T11:28:16.687Z,2.50
2018-12-13T11:29:16.682Z,2.54
2018-12-13T11:30:16.703Z,2.60
2018-12-13T11:31:16.675Z,2.54
2018-12-13T11:32:16.692Z,2.69
2018-12-13T11:33:16.635Z,2.69
2018-12-13T11:34:16.639Z,2.65
2018-12-13T11:35:16.636Z,2.69
2018-12-13T11:36:16.626Z,2.80
2018-12-13T11:37:16.604Z,2.79
2018-12-13T11:38:16.674Z,2.74
2018-12-13T11:39:16.588Z,2.85
2018-12-13T11:40:16.563Z,2.86
2018-12-13T11:41:16.595Z,2.85
2018-12-13T11:42:16.557Z,2.82
2018-12-13T11:43:16.525Z,2.87
2018-12-13T11:44:16.514Z,2.87
2018-12-13T11:45:16.546Z,2.85
2018-12-13T11:46:16.514Z,2.92
2018-12-13T11:47:16.485Z,2.69
2018-12-13T11:48:16.474Z,2.57
2018-12-13T11:49:16.463Z,2.39
2018-12-13T11:50:16.449Z,2.33
2018-12-13T11:51:16.476Z,2.32
2018-12-13T11:52:16.431Z,2.32
2018-12-13T11:53:16.424Z,2.38
2018-12-13T11:54:16.408Z,2.51
2018-12-13T11:55:16.421Z,2.43
2018-12-13T11:56:16.414Z,2.50
2018-12-13T11:57:16.435Z,2.50
2018-12-13T11:58:16.377Z,2.56
2018-12-13T11:59:16.399Z,2.57
2018-12-13T12:00:16.374Z,2.64
2018-12-13T12:01:16.367Z,2.67
2018-12-13T12:02:16.350Z,2.64
2018-12-13T12:03:16.353Z,2.49
2018-12-13T12:04:16.307Z,2.50
2018-12-13T12:05:16.313Z,2.57
2018-12-13T12:06:16.279Z,2.56
2018-12-13T12:07:16.323Z,2.44
2018-12-13T12:08:16.317Z,2.32
2018-12-13T12:09:16.262Z,2.22
2018-12-13T12:10:16.240Z,2.14
2018-12-13T12:11:16.240Z,2.14
2018-12-13T12:12:16.245Z,2.08
2018-12-13T12:13:16.260Z,2.14
2018-12-13T12:14:16.204Z,2.29
2018-12-13T12:15:16.187Z,2.43
2018-12-13T12:16:16.175Z,2.35
2018-12-13T12:17:16.182Z,2.53
2018-12-13T12:18:16.180Z,2.49
2018-12-13T12:19:16.185Z,2.56
2018-12-13T12:20:16.146Z,2.53
2018-12-13T12:21:16.153Z,2.57
2018-12-13T12:22:16.109Z,2.51
2018-12-13T12:23:16.155Z,2.54
2018-12-13T12:24:16.110Z,2.61
2018-12-13T12:25:16.142Z,2.54
2018-12-13T12:26:16.085Z,2.56
2018-12-13T12:27:16.071Z,2.68
2018-12-13T12:28:16.053Z,2.67
2018-12-13T12:29:16.084Z,2.77
2018-12-13T12:30:16.044Z,2.83
2018-12-13T12:31:16.016Z,2.77
2018-12-13T12:32:16.009Z,2.82
2018-12-13T12:33:16.021Z,2.74
2018-12-13T12:34:16.071Z,2.82
2018-12-13T12:35:15.995Z,2.82
2018-12-13T12:36:15.967Z,2.86
2018-12-13T12:37:15.975Z,2.77
2018-12-13T12:38:16.009Z,2.71
2018-12-13T12:39:18.756Z,2.75
2018-12-13T12:40:15.954Z,2.65
2018-12-13T12:41:15.909Z,2.75
2018-12-13T12:42:15.901Z,2.72
2018-12-13T12:43:15.911Z,2.69
2018-12-13T12:44:15.891Z,2.69
2018-12-13T12:45:15.926Z,2.57
2018-12-13T12:46:15.912Z,2.36
2018-12-13T12:47:15.850Z,2.36
2018-12-13T12:48:15.832Z,2.43
2018-12-13T12:49:15.849Z,2.42
2018-12-13T12:50:15.841Z,2.53
2018-12-13T12:51:15.799Z,2.46
2018-12-13T12:52:15.798Z,2.36
2018-12-13T12:53:15.782Z,2.33
2018-12-13T12:54:15.773Z,2.26
2018-12-13T12:55:15.766Z,2.28
2018-12-13T12:56:15.772Z,2.22
2018-12-13T12:57:15.740Z,2.29
2018-12-13T12:58:15.733Z,2.31
2018-12-13T12:59:15.739Z,2.33
2018-12-13T13:00:15.707Z,2.31
2018-12-13T13:01:15.807Z,2.31
2018-12-13T13:02:15.705Z,2.25
2018-12-13T13:03:15.676Z,2.28
2018-12-13T13:04:15.666Z,2.22
2018-12-13T13:05:15.663Z,2.28
2018-12-13T13:06:15.673Z,2.26
2018-12-13T13:07:15.636Z,2.24
2018-12-13T13:08:15.619Z,2.22
2018-12-13T13:09:15.613Z,2.28
2018-12-13T13:10:15.607Z,2.25
2018-12-13T13:11:15.591Z,2.25
2018-12-13T13:12:15.621Z,2.22
2018-12-13T13:13:15.569Z,2.32
2018-12-13T13:14:15.569Z,2.35
2018-12-13T13:15:15.549Z,2.33
2018-12-13T13:16:15.563Z,2.33
2018-12-13T13:17:15.557Z,2.31
2018-12-13T13:18:15.527Z,2.25
2018-12-13T13:19:15.529Z,2.33